Aldie, Virginia
Current Conditions -  °F | °C
As of 4:15 PM on Thursday 23 Oct 2014 (Local Time) from KJYO Reporting Station
Broken Clouds Broken Clouds  
Wind Chill: 63°   Ceiling: 5000
Heat Index: 63°   Visibility: 10mi
Dew Point: 46°   Wind: 15mph
Humidity: 55%   Direction: 350°N
Pressure: 29.9"   Gusts: 29mph
Location:  38.98°N, 77.64°W
Report Text: KJYO 232015Z AUTO 35013G25KT 10SM BKN050 17/08 A2990 RMK AO2
Loading
Personal Weather Stations






























Interactive Weather Map
Tropical Storm Tracking
New forecast layout! Learn more

10-Day Weather Forecast

Advertisements
Track Severe Weather on mobile